Time;durP1;ratioP1;P1;durP2;ratioP2;P2;SDS_P1;SDS_P2;PMS_P1;PMS_P2;Temp;Humidity;BMP_temperature;BMP_pressure;BME280_temperature;BME280_humidity;BME280_pressure;Samples;Min_cycle;Max_cycle;Signal;HPM_P1;HPM_P2
2023/09/09 00:01:49;;;;;;;18.23;16.33;;;21.60;99.90;;;;;;5045507;28;20467;-90
2023/09/09 00:07:02;;;;;;;17.07;15.67;;;21.60;99.90;;;;;;5041222;28;20475;-83
2023/09/09 00:09:32;;;;;;;16.43;15.03;;;21.60;99.90;;;;;;5053214;28;20467;-82
2023/09/09 00:15:13;;;;;;;15.63;14.20;;;21.60;99.90;;;;;;5026855;28;20953;-83
2023/09/09 00:17:40;;;;;;;15.20;13.83;;;21.60;99.90;;;;;;5033220;28;20477;-82
2023/09/09 00:20:11;;;;;;;15.00;13.60;;;21.50;99.90;;;;;;5033934;28;20821;-83
2023/09/09 00:22:38;;;;;;;14.50;13.30;;;21.50;99.90;;;;;;5046011;28;20471;-83
2023/09/09 00:25:12;;;;;;;15.00;13.83;;;21.50;99.90;;;;;;5053847;28;20539;-83
2023/09/09 00:28:17;;;;;;;15.13;13.83;;;21.50;99.90;;;;;;5045201;28;20478;-92
2023/09/09 00:30:47;;;;;;;15.27;13.87;;;21.50;99.90;;;;;;5008272;28;21178;-91
2023/09/09 00:33:16;;;;;;;15.63;14.27;;;21.50;99.90;;;;;;5062291;28;20454;-84
2023/09/09 00:35:53;;;;;;;;;;;;;;;;;;;;;
2023/09/09 00:38:20;;;;;;;14.50;13.40;;;21.50;99.90;;;;;;5071487;28;20476;-85
2023/09/09 00:41:14;;;;;;;15.80;14.30;;;21.50;99.90;;;;;;5061760;28;20520;-91
2023/09/09 00:43:41;;;;;;;15.13;13.40;;;21.50;99.90;;;;;;5070418;28;20871;-83
2023/09/09 00:46:09;;;;;;;14.60;13.10;;;21.40;99.90;;;;;;5073222;28;20470;-84
2023/09/09 00:48:37;;;;;;;14.33;13.00;;;21.40;99.90;;;;;;5084284;28;20480;-92
2023/09/09 00:51:08;;;;;;;14.93;13.70;;;21.40;99.90;;;;;;5073842;28;20461;-93
2023/09/09 00:53:35;;;;;;;15.10;13.80;;;21.40;99.90;;;;;;5075892;28;20474;-92
2023/09/09 00:59:30;;;;;;;14.30;13.20;;;21.40;99.90;;;;;;4983214;28;20465;-89
2023/09/09 01:02:02;;;;;;;13.87;12.57;;;21.30;99.90;;;;;;5063181;28;20512;-90
2023/09/09 01:04:38;;;;;;;16.00;14.70;;;21.30;99.90;;;;;;5074439;28;20816;-90
2023/09/09 01:07:09;;;;;;;16.20;14.73;;;21.30;99.90;;;;;;5074313;28;20469;-91
2023/09/09 01:09:36;;;;;;;14.67;13.33;;;21.30;99.90;;;;;;5044359;28;20517;-83
2023/09/09 01:12:18;;;;;;;15.30;14.00;;;21.30;99.90;;;;;;5071640;28;20470;-84
2023/09/09 01:14:46;;;;;;;16.80;15.30;;;21.30;99.90;;;;;;5064123;28;20476;-83
2023/09/09 01:17:14;;;;;;;15.40;14.03;;;21.30;99.90;;;;;;5072517;28;20496;-83
2023/09/09 01:19:41;;;;;;;15.00;13.70;;;21.30;99.90;;;;;;5073102;28;20498;-89
2023/09/09 01:22:15;;;;;;;15.57;14.17;;;21.20;99.90;;;;;;5063286;28;20561;-90
2023/09/09 01:24:44;;;;;;;15.63;14.43;;;21.20;99.90;;;;;;5073072;28;20490;-91
2023/09/09 01:27:14;;;;;;;14.77;13.57;;;21.20;99.90;;;;;;5072619;28;20491;-84
2023/09/09 01:29:44;;;;;;;15.70;14.30;;;21.20;99.90;;;;;;5072222;28;20532;-84
2023/09/09 01:32:41;;;;;;;15.90;14.30;;;21.20;99.90;;;;;;5056943;28;20474;-82
2023/09/09 01:35:08;;;;;;;16.13;14.60;;;21.20;99.90;;;;;;5028393;28;20489;-83
2023/09/09 01:37:41;;;;;;;15.43;13.97;;;21.20;99.90;;;;;;5072235;28;21033;-84
2023/09/09 01:40:12;;;;;;;14.57;13.17;;;21.20;99.90;;;;;;5073981;28;20466;-90
2023/09/09 01:42:40;;;;;;;15.80;14.50;;;21.20;99.90;;;;;;5073166;28;20477;-91
2023/09/09 01:45:12;;;;;;;15.60;14.30;;;21.10;99.90;;;;;;5079277;28;20961;-83
2023/09/09 01:47:40;;;;;;;15.30;14.00;;;21.10;99.90;;;;;;5067539;28;20485;-91
2023/09/09 01:50:14;;;;;;;15.57;14.07;;;21.10;99.90;;;;;;5079383;28;20466;-89
2023/09/09 01:52:45;;;;;;;14.00;12.70;;;21.10;99.90;;;;;;5068626;28;20556;-90
2023/09/09 01:55:16;;;;;;;15.93;14.63;;;21.10;99.90;;;;;;5064217;28;20462;-90
2023/09/09 01:57:46;;;;;;;15.33;13.93;;;21.10;99.90;;;;;;5051973;28;20541;-83
2023/09/09 02:00:16;;;;;;;16.37;14.77;;;21.10;99.90;;;;;;5079786;28;20469;-83
2023/09/09 02:02:48;;;;;;;15.07;13.77;;;21.10;99.90;;;;;;5052170;28;20567;-83
2023/09/09 02:05:15;;;;;;;16.27;14.87;;;21.10;99.90;;;;;;5079295;28;20916;-83
2023/09/09 02:07:43;;;;;;;15.80;14.60;;;21.10;99.90;;;;;;5079895;28;20489;-83
2023/09/09 02:10:10;;;;;;;15.87;14.53;;;21.00;99.90;;;;;;5069744;28;20504;-90
2023/09/09 02:12:37;;;;;;;15.80;14.20;;;21.00;99.90;;;;;;5080100;28;20466;-90
2023/09/09 02:15:14;;;;;;;15.90;14.50;;;21.00;99.90;;;;;;5070498;28;20466;-91
2023/09/09 02:17:41;;;;;;;15.40;14.03;;;21.00;99.90;;;;;;5080153;28;20469;-90
2023/09/09 02:20:11;;;;;;;15.53;14.13;;;21.00;99.90;;;;;;5079346;28;20519;-83
2023/09/09 02:22:42;;;;;;;15.77;14.37;;;21.00;99.90;;;;;;5080092;28;20470;-82
2023/09/09 02:25:10;;;;;;;15.10;13.80;;;21.00;99.90;;;;;;5079514;28;20474;-83
2023/09/09 02:27:37;;;;;;;16.23;14.87;;;21.00;99.90;;;;;;5079534;28;20477;-90
2023/09/09 02:30:05;;;;;;;16.20;14.70;;;21.00;99.90;;;;;;5078846;28;20466;-88
2023/09/09 02:32:35;;;;;;;16.83;15.43;;;21.00;99.90;;;;;;5079366;28;20477;-91
2023/09/09 02:35:08;;;;;;;15.17;13.87;;;21.00;99.90;;;;;;5079918;28;20473;-91
2023/09/09 02:37:35;;;;;;;15.93;14.73;;;21.00;99.90;;;;;;5077831;28;20482;-83
2023/09/09 02:40:04;;;;;;;15.77;14.40;;;21.00;99.90;;;;;;5078164;28;20470;-84
2023/09/09 02:42:31;;;;;;;14.90;13.43;;;21.00;99.90;;;;;;5079288;28;20470;-83
2023/09/09 02:45:00;;;;;;;14.47;13.23;;;21.00;99.90;;;;;;5079405;28;20470;-83
2023/09/09 02:47:27;;;;;;;15.27;13.73;;;20.90;99.90;;;;;;5078910;28;20458;-89
2023/09/09 02:50:08;;;;;;;13.93;12.63;;;20.90;99.90;;;;;;5079091;28;20539;-89
2023/09/09 02:52:35;;;;;;;16.20;14.70;;;20.90;99.90;;;;;;5079243;28;20449;-83
2023/09/09 02:55:06;;;;;;;13.93;12.83;;;20.90;99.90;;;;;;5077192;28;20858;-83
2023/09/09 02:57:33;;;;;;;14.73;13.20;;;20.90;99.90;;;;;;5074439;28;20458;-83
2023/09/09 03:00:01;;;;;;;14.40;13.20;;;20.90;99.90;;;;;;5076080;28;20467;-83
2023/09/09 03:02:28;;;;;;;15.17;13.63;;;20.90;99.90;;;;;;5075517;28;20798;-90
2023/09/09 03:04:55;;;;;;;13.97;12.73;;;20.80;99.90;;;;;;5077965;28;20478;-90
2023/09/09 03:07:22;;;;;;;14.77;13.47;;;20.80;99.90;;;;;;5073182;28;21073;-83
2023/09/09 03:09:51;;;;;;;14.57;13.23;;;20.80;99.90;;;;;;5057399;28;20473;-83
2023/09/09 03:12:22;;;;;;;15.43;14.17;;;20.80;99.90;;;;;;5081393;28;20466;-88
2023/09/09 03:14:49;;;;;;;15.10;13.70;;;20.80;99.90;;;;;;5078373;28;20474;-83
2023/09/09 03:17:17;;;;;;;15.63;14.33;;;20.80;99.90;;;;;;5069476;28;20500;-89
2023/09/09 03:19:47;;;;;;;13.47;12.30;;;20.80;99.90;;;;;;5086820;28;20471;-90
2023/09/09 03:22:15;;;;;;;15.23;14.03;;;20.80;99.90;;;;;;5085192;28;20478;-89
2023/09/09 03:24:42;;;;;;;15.40;14.00;;;20.70;99.90;;;;;;5078989;28;20478;-84
2023/09/09 03:27:18;;;;;;;15.50;14.10;;;20.70;99.90;;;;;;5064432;28;20545;-84
2023/09/09 03:29:50;;;;;;;17.47;14.13;;;20.70;99.90;;;;;;5044372;28;20788;-83
2023/09/09 03:32:21;;;;;;;17.27;15.70;;;20.70;99.90;;;;;;5062288;28;20474;-82
2023/09/09 03:35:06;;;;;;;16.03;14.40;;;20.70;99.90;;;;;;5064102;28;20825;-83
2023/09/09 03:37:33;;;;;;;16.70;15.30;;;20.70;99.90;;;;;;5070725;28;21002;-83
2023/09/09 03:40:00;;;;;;;15.27;13.97;;;20.70;99.90;;;;;;5075415;28;20458;-84
2023/09/09 03:42:26;;;;;;;15.77;14.37;;;20.70;99.90;;;;;;5074554;28;20473;-83
2023/09/09 03:45:23;;;;;;;16.10;14.70;;;20.70;99.90;;;;;;5050531;28;20574;-83
2023/09/09 03:47:50;;;;;;;16.40;15.00;;;20.70;99.90;;;;;;5045475;28;20456;-83
2023/09/09 03:50:17;;;;;;;15.83;14.60;;;20.70;99.90;;;;;;5055886;28;20555;-90
2023/09/09 03:52:44;;;;;;;16.80;15.30;;;20.70;99.90;;;;;;5041763;28;20961;-91
2023/09/09 03:55:13;;;;;;;16.17;14.67;;;20.60;99.90;;;;;;5055181;28;20488;-84
2023/09/09 03:57:43;;;;;;;16.40;15.00;;;20.60;99.90;;;;;;5054385;28;20467;-90
2023/09/09 04:00:12;;;;;;;17.03;15.50;;;20.60;99.90;;;;;;5053677;28;20473;-91
2023/09/09 04:02:42;;;;;;;17.33;15.93;;;20.60;99.90;;;;;;5054451;28;20481;-84
2023/09/09 04:05:11;;;;;;;16.20;14.83;;;20.60;99.90;;;;;;5055203;28;20502;-90
2023/09/09 04:07:39;;;;;;;15.90;14.60;;;20.60;99.90;;;;;;5053535;28;20479;-90
2023/09/09 04:10:11;;;;;;;15.90;14.63;;;20.60;99.90;;;;;;5042942;28;20976;-89
2023/09/09 04:12:38;;;;;;;15.67;14.37;;;20.60;99.90;;;;;;5053293;28;20808;-83
2023/09/09 04:15:08;;;;;;;16.53;15.13;;;20.60;99.90;;;;;;5054667;28;20793;-83
2023/09/09 04:17:40;;;;;;;14.90;13.60;;;20.60;99.90;;;;;;5055026;28;20491;-83
2023/09/09 04:20:09;;;;;;;16.37;15.00;;;20.60;99.90;;;;;;5054533;28;20513;-90
2023/09/09 04:22:36;;;;;;;17.00;14.60;;;20.70;99.90;;;;;;5054734;28;20486;-89
2023/09/09 04:25:03;;;;;;;15.27;13.93;;;20.70;99.90;;;;;;5054591;28;20467;-90
2023/09/09 04:27:31;;;;;;;15.20;14.00;;;20.70;99.90;;;;;;5054769;28;20463;-89
2023/09/09 04:29:58;;;;;;;15.10;13.50;;;20.70;99.90;;;;;;5054482;28;20467;-89
2023/09/09 04:32:31;;;;;;;16.53;15.30;;;20.70;99.90;;;;;;5054481;28;20476;-88
2023/09/09 04:34:58;;;;;;;17.33;14.43;;;20.70;99.90;;;;;;5053629;28;20497;-82
2023/09/09 04:37:27;;;;;;;16.57;15.10;;;20.60;99.90;;;;;;5055181;28;20547;-89
2023/09/09 04:39:54;;;;;;;16.53;14.93;;;20.60;99.90;;;;;;5053218;28;20491;-84
2023/09/09 04:42:22;;;;;;;15.83;14.43;;;20.60;99.90;;;;;;5054964;28;20471;-89
2023/09/09 04:44:48;;;;;;;16.23;14.63;;;20.70;99.90;;;;;;5054850;28;20481;-82
2023/09/09 04:47:34;;;;;;;14.83;13.50;;;20.70;99.90;;;;;;5064721;28;20462;-89
2023/09/09 04:50:02;;;;;;;14.90;13.60;;;20.70;99.90;;;;;;5065183;28;20470;-89
2023/09/09 04:52:43;;;;;;;13.97;12.87;;;20.70;99.90;;;;;;5075448;28;20475;-83
2023/09/09 04:55:11;;;;;;;14.00;12.90;;;20.70;99.90;;;;;;5044467;28;20478;-83
2023/09/09 04:57:38;;;;;;;15.33;13.70;;;20.70;99.90;;;;;;5073874;28;20482;-82
2023/09/09 05:00:07;;;;;;;14.70;13.50;;;20.70;99.90;;;;;;5064097;28;20470;-89
2023/09/09 05:02:34;;;;;;;16.90;15.23;;;20.70;99.90;;;;;;5074933;28;20524;-89
2023/09/09 05:05:04;;;;;;;16.30;14.70;;;20.60;99.90;;;;;;5073500;28;20481;-83
2023/09/09 05:07:34;;;;;;;16.37;14.93;;;20.60;99.90;;;;;;5075131;28;20955;-89
2023/09/09 05:10:01;;;;;;;15.10;13.77;;;20.70;99.90;;;;;;5074838;28;20467;-89
2023/09/09 05:12:28;;;;;;;15.03;13.60;;;20.60;99.90;;;;;;5075242;28;20523;-82
2023/09/09 05:14:55;;;;;;;16.80;15.20;;;20.70;99.90;;;;;;5074636;28;20964;-83
2023/09/09 05:17:22;;;;;;;15.77;14.47;;;20.70;99.90;;;;;;5073809;28;20553;-88
2023/09/09 05:19:53;;;;;;;14.67;13.47;;;20.70;99.90;;;;;;5075411;28;20474;-88
2023/09/09 05:22:24;;;;;;;15.50;14.20;;;20.70;99.90;;;;;;5074749;28;20520;-82
2023/09/09 05:24:56;;;;;;;15.40;13.90;;;20.70;99.90;;;;;;5075125;28;20797;-83
2023/09/09 05:27:23;;;;;;;15.00;13.60;;;20.70;99.90;;;;;;5073659;28;20496;-83
2023/09/09 05:29:50;;;;;;;13.87;12.53;;;20.80;99.90;;;;;;5073611;28;20466;-83
2023/09/09 05:32:17;;;;;;;15.50;14.10;;;20.80;99.90;;;;;;5073000;28;20801;-90
2023/09/09 05:34:44;;;;;;;15.43;14.13;;;20.80;99.90;;;;;;5074375;28;20470;-83
2023/09/09 05:37:12;;;;;;;15.90;14.57;;;20.80;99.90;;;;;;5072676;28;20474;-83
2023/09/09 05:39:57;;;;;;;16.17;14.67;;;20.90;99.90;;;;;;5074218;28;20955;-83
2023/09/09 05:42:25;;;;;;;16.20;14.60;;;20.90;99.90;;;;;;5074351;28;20464;-83
2023/09/09 05:44:54;;;;;;;16.63;15.00;;;20.90;99.90;;;;;;5073295;28;20861;-83
2023/09/09 05:47:21;;;;;;;14.67;13.43;;;20.90;99.90;;;;;;5074286;28;21051;-91
2023/09/09 05:49:51;;;;;;;16.57;15.20;;;21.00;99.90;;;;;;5075562;28;20485;-91
2023/09/09 05:52:18;;;;;;;14.73;13.40;;;21.00;99.90;;;;;;5072750;28;20496;-82
2023/09/09 05:54:45;;;;;;;15.20;14.00;;;21.10;99.90;;;;;;5074068;28;20466;-90
2023/09/09 05:57:12;;;;;;;16.07;14.67;;;21.10;99.90;;;;;;5072858;28;20845;-89
2023/09/09 05:59:46;;;;;;;13.67;12.47;;;21.20;99.90;;;;;;5076281;28;20462;-83
2023/09/09 06:02:13;;;;;;;14.27;13.03;;;21.20;99.90;;;;;;5072721;28;20462;-82
2023/09/09 06:04:40;;;;;;;16.13;14.67;;;21.20;99.90;;;;;;5073433;28;20462;-84
2023/09/09 06:07:07;;;;;;;14.10;12.90;;;21.20;99.90;;;;;;5064377;28;20812;-91
2023/09/09 06:09:37;;;;;;;15.43;14.03;;;21.30;99.90;;;;;;5073793;28;20593;-90
2023/09/09 06:12:04;;;;;;;15.77;14.47;;;21.40;99.90;;;;;;5074250;28;20463;-91
2023/09/09 06:14:31;;;;;;;15.03;13.77;;;21.40;99.90;;;;;;5079236;28;20480;-90
2023/09/09 06:17:00;;;;;;;14.90;13.70;;;21.40;99.90;;;;;;5082746;28;20547;-89
2023/09/09 06:19:27;;;;;;;16.93;15.47;;;21.50;99.90;;;;;;5077532;28;20861;-84
2023/09/09 06:21:54;;;;;;;15.30;14.00;;;21.50;99.90;;;;;;5072917;28;20486;-83
2023/09/09 06:24:21;;;;;;;15.03;13.80;;;21.50;99.90;;;;;;5072004;28;20521;-83
2023/09/09 06:26:48;;;;;;;13.90;12.83;;;21.50;99.90;;;;;;5073636;28;20470;-90
2023/09/09 06:29:16;;;;;;;16.60;12.80;;;21.50;99.90;;;;;;5072016;28;20943;-83
2023/09/09 06:31:43;;;;;;;13.40;12.30;;;21.50;99.90;;;;;;5076227;28;20520;-90
2023/09/09 06:34:17;;;;;;;13.67;12.47;;;21.60;99.90;;;;;;5077065;28;20477;-89
2023/09/09 06:36:51;;;;;;;14.90;13.53;;;21.50;99.90;;;;;;5077016;28;20462;-90
2023/09/09 06:39:20;;;;;;;13.93;12.73;;;21.60;99.90;;;;;;5077891;28;20965;-90
2023/09/09 06:41:47;;;;;;;14.47;13.17;;;21.60;99.90;;;;;;5076665;28;20867;-82
2023/09/09 06:44:14;;;;;;;13.83;12.57;;;21.60;99.90;;;;;;5077016;28;20470;-89
2023/09/09 06:46:47;;;;;;;13.57;12.57;;;21.60;99.90;;;;;;5075390;28;20975;-83
2023/09/09 06:49:24;;;;;;;14.93;13.43;;;21.60;99.90;;;;;;5059657;28;20470;-90
2023/09/09 06:51:53;;;;;;;14.57;13.07;;;21.60;99.90;;;;;;5068434;28;20537;-89
2023/09/09 06:54:20;;;;;;;12.83;11.83;;;21.60;99.90;;;;;;5076292;28;20471;-88
2023/09/09 06:56:52;;;;;;;13.03;12.03;;;21.70;99.90;;;;;;5075819;28;20479;-89
2023/09/09 06:59:22;;;;;;;12.67;11.63;;;21.70;99.90;;;;;;5067914;28;20956;-82
2023/09/09 07:01:54;;;;;;;14.13;12.83;;;21.80;99.90;;;;;;5077420;28;20470;-89
2023/09/09 07:04:26;;;;;;;14.17;12.97;;;21.80;99.90;;;;;;5076529;28;20565;-84
2023/09/09 07:06:57;;;;;;;13.17;12.07;;;21.80;99.90;;;;;;5075446;28;20478;-83
2023/09/09 07:09:24;;;;;;;13.37;12.27;;;21.90;99.90;;;;;;5066804;28;20829;-90
2023/09/09 07:11:53;;;;;;;13.40;12.30;;;22.00;99.90;;;;;;5076072;28;20486;-83
2023/09/09 07:14:23;;;;;;;13.00;11.90;;;22.00;99.90;;;;;;5061533;28;20483;-89
2023/09/09 07:16:50;;;;;;;13.20;12.10;;;22.00;99.90;;;;;;5055452;28;21005;-90
2023/09/09 07:19:18;;;;;;;12.10;11.10;;;22.00;99.90;;;;;;5077720;28;20466;-88
2023/09/09 07:21:49;;;;;;;13.13;11.93;;;22.10;99.90;;;;;;5078196;28;20496;-88
2023/09/09 07:24:16;;;;;;;15.40;14.13;;;22.20;99.90;;;;;;5078543;28;20474;-89
2023/09/09 07:26:46;;;;;;;14.00;12.80;;;22.20;99.90;;;;;;5077726;28;20474;-90
2023/09/09 07:29:13;;;;;;;14.00;12.70;;;22.30;99.90;;;;;;5076523;28;20492;-89
2023/09/09 07:31:40;;;;;;;13.50;12.40;;;22.30;99.90;;;;;;5076507;28;20528;-83
2023/09/09 07:34:08;;;;;;;15.47;14.07;;;22.30;99.90;;;;;;5065266;28;20462;-90
2023/09/09 07:36:35;;;;;;;14.17;12.77;;;22.40;99.90;;;;;;5061756;28;20983;-83
2023/09/09 07:39:04;;;;;;;14.50;12.00;;;22.50;99.90;;;;;;5076294;28;20470;-83
2023/09/09 07:41:31;;;;;;;13.27;11.97;;;22.50;99.90;;;;;;5052079;28;20962;-83
2023/09/09 07:44:01;;;;;;;12.17;10.97;;;22.50;99.90;;;;;;5075226;28;20481;-89
2023/09/09 07:46:43;;;;;;;12.90;11.80;;;22.60;99.90;;;;;;5079619;28;20780;-88
2023/09/09 07:49:10;;;;;;;12.97;11.87;;;22.70;99.90;;;;;;5068876;28;20497;-90
2023/09/09 07:51:46;;;;;;;11.80;10.83;;;22.70;99.90;;;;;;5076350;28;20781;-88
2023/09/09 07:54:18;;;;;;;12.20;11.10;;;22.80;99.90;;;;;;5047490;28;20817;-83
2023/09/09 07:56:46;;;;;;;12.77;11.67;;;22.90;99.90;;;;;;5066085;28;20494;-84
2023/09/09 07:59:15;;;;;;;13.50;11.60;;;23.00;99.90;;;;;;5076428;28;20789;-84
2023/09/09 08:01:45;;;;;;;13.23;12.03;;;23.00;99.90;;;;;;5075700;28;20812;-90
2023/09/09 08:04:36;;;;;;;12.53;11.53;;;23.10;99.90;;;;;;5074302;28;20474;-90
2023/09/09 08:07:07;;;;;;;12.17;11.17;;;23.20;99.90;;;;;;5071861;28;20824;-84
2023/09/09 08:12:55;;;;;;;12.70;11.50;;;23.30;99.90;;;;;;5073601;28;20999;-84
2023/09/09 08:15:23;;;;;;;11.80;10.70;;;23.40;99.90;;;;;;5075914;28;20478;-91
2023/09/09 08:18:47;;;;;;;11.73;10.63;;;23.40;99.90;;;;;;5051476;28;20488;-84
2023/09/09 08:22:22;;;;;;;;;;;;;;;;;;;;;
2023/09/09 08:25:06;;;;;;;10.90;10.00;;;23.50;99.90;;;;;;5036515;28;20491;-82
2023/09/09 08:27:40;;;;;;;11.40;10.50;;;23.50;99.90;;;;;;5052293;28;20478;-82
2023/09/09 08:30:09;;;;;;;12.37;11.17;;;23.60;99.90;;;;;;5058823;28;20490;-84
2023/09/09 08:33:16;;;;;;;10.67;9.77;;;23.70;99.90;;;;;;5029551;28;20565;-91
2023/09/09 08:35:51;;;;;;;12.60;11.57;;;23.70;99.90;;;;;;5046469;28;20471;-89
2023/09/09 08:38:19;;;;;;;11.53;10.53;;;23.80;99.90;;;;;;5047106;28;20474;-83
2023/09/09 08:40:55;;;;;;;12.37;11.30;;;23.80;99.90;;;;;;5054194;28;20463;-82
2023/09/09 08:43:35;;;;;;;12.57;11.20;;;23.90;99.90;;;;;;5074250;28;20477;-83
2023/09/09 08:46:14;;;;;;;10.47;9.67;;;23.90;99.90;;;;;;5072733;28;20462;-83
2023/09/09 08:48:47;;;;;;;12.27;11.27;;;23.90;99.90;;;;;;5092484;28;20465;-91
2023/09/09 08:54:05;;;;;;;13.87;12.67;;;24.10;99.90;;;;;;5052849;28;20474;-90
2023/09/09 08:56:33;;;;;;;11.77;10.57;;;24.10;99.90;;;;;;5074099;28;20504;-82
2023/09/09 08:59:01;;;;;;;11.90;10.80;;;24.10;99.90;;;;;;5075934;28;20462;-83
2023/09/09 09:02:09;;;;;;;11.30;10.40;;;24.20;99.90;;;;;;5066739;28;20951;-82
2023/09/09 09:04:38;;;;;;;11.10;10.10;;;24.20;99.90;;;;;;5065061;28;20462;-88
2023/09/09 09:07:09;;;;;;;9.60;8.73;;;24.20;99.90;;;;;;5076579;28;20466;-90
2023/09/09 09:09:56;;;;;;;9.40;8.20;;;24.20;99.90;;;;;;5077075;28;20462;-83
2023/09/09 09:12:24;;;;;;;8.20;7.50;;;24.30;99.90;;;;;;5077114;28;20520;-82
2023/09/09 09:14:51;;;;;;;10.07;9.17;;;24.30;99.90;;;;;;5074635;28;20813;-83
2023/09/09 09:17:24;;;;;;;9.57;8.87;;;24.40;99.90;;;;;;5071639;28;20550;-83
2023/09/09 09:19:53;;;;;;;11.70;10.10;;;24.50;99.90;;;;;;5074685;28;20479;-89
2023/09/09 09:22:20;;;;;;;8.87;8.07;;;24.50;99.90;;;;;;5076635;28;20859;-90
2023/09/09 09:24:47;;;;;;;9.60;8.70;;;24.60;99.90;;;;;;5074092;28;20491;-90
2023/09/09 09:27:16;;;;;;;9.67;8.97;;;24.60;99.90;;;;;;5051289;28;20475;-82
2023/09/09 09:29:47;;;;;;;9.23;8.57;;;24.60;99.90;;;;;;5067297;28;20879;-84
2023/09/09 09:32:24;;;;;;;9.70;8.80;;;24.60;99.90;;;;;;5056779;28;20492;-90
2023/09/09 09:34:54;;;;;;;8.87;7.97;;;24.60;99.90;;;;;;5074579;28;20963;-82
2023/09/09 09:37:22;;;;;;;10.43;9.63;;;24.70;99.90;;;;;;5027947;28;20484;-84
2023/09/09 09:39:53;;;;;;;8.80;8.10;;;24.70;99.90;;;;;;5075338;28;20485;-90
2023/09/09 09:42:22;;;;;;;9.00;8.10;;;24.70;99.90;;;;;;5073835;28;20458;-83
2023/09/09 09:44:49;;;;;;;8.90;8.20;;;24.80;99.90;;;;;;5075590;28;20948;-90
2023/09/09 09:47:16;;;;;;;9.93;9.10;;;24.80;99.90;;;;;;5074584;28;20463;-90
2023/09/09 09:49:48;;;;;;;10.33;9.43;;;24.90;99.90;;;;;;5066369;28;20455;-91
2023/09/09 09:52:26;;;;;;;9.90;9.10;;;24.90;99.90;;;;;;5066259;28;20546;-91
2023/09/09 09:54:56;;;;;;;9.00;8.30;;;24.90;99.90;;;;;;5074542;28;20470;-82
2023/09/09 09:57:25;;;;;;;8.40;7.60;;;24.90;99.90;;;;;;5072712;28;20963;-84
2023/09/09 10:00:14;;;;;;;9.40;8.60;;;24.90;99.90;;;;;;5074134;28;20500;-84
2023/09/09 10:02:46;;;;;;;10.37;9.47;;;25.00;99.90;;;;;;5075755;28;20470;-84
2023/09/09 10:05:21;;;;;;;9.83;8.80;;;25.00;99.90;;;;;;5061965;28;20482;-90
2023/09/09 10:07:57;;;;;;;8.40;7.70;;;25.00;99.90;;;;;;5059769;28;20466;-83
2023/09/09 10:10:32;;;;;;;10.27;9.33;;;25.00;99.90;;;;;;5077361;28;20824;-83
2023/09/09 10:13:05;;;;;;;12.53;11.30;;;25.00;99.90;;;;;;5076594;28;20979;-85
2023/09/09 10:15:36;;;;;;;14.10;11.83;;;25.00;99.90;;;;;;5061110;28;20484;-85
2023/09/09 10:18:29;;;;;;;8.73;8.13;;;25.20;99.90;;;;;;5049921;28;20485;-84
2023/09/09 10:21:23;;;;;;;8.53;7.80;;;25.20;99.90;;;;;;5064829;28;20467;-85
2023/09/09 10:23:54;;;;;;;9.57;8.63;;;25.40;99.80;;;;;;5067766;28;20470;-89
2023/09/09 10:26:44;;;;;;;7.10;6.50;;;25.60;99.90;;;;;;5077125;28;20544;-85
2023/09/09 10:29:12;;;;;;;7.00;6.13;;;25.70;99.30;;;;;;5038925;28;20483;-89
2023/09/09 10:32:10;;;;;;;8.53;6.73;;;25.80;98.20;;;;;;5077609;28;20817;-90
2023/09/09 10:34:45;;;;;;;6.40;5.90;;;26.00;97.60;;;;;;5062104;28;20475;-85
2023/09/09 10:37:19;;;;;;;6.70;6.20;;;26.20;96.80;;;;;;5063833;28;20482;-84
2023/09/09 10:39:48;;;;;;;6.10;5.70;;;26.30;95.50;;;;;;5075809;28;20472;-89
2023/09/09 10:42:19;;;;;;;6.40;5.60;;;26.50;95.20;;;;;;5077031;28;20494;-85
2023/09/09 10:44:48;;;;;;;10.43;6.60;;;26.60;94.90;;;;;;5076297;28;21047;-90
2023/09/09 10:56:28;;;;;;;6.70;6.10;;;27.10;94.90;;;;;;5095857;22;20463;-89
2023/09/09 10:59:15;;;;;;;5.30;4.63;;;27.20;92.50;;;;;;5097308;28;20464;-85
2023/09/09 11:02:11;;;;;;;7.07;6.47;;;27.20;91.50;;;;;;5096690;28;20477;-85
2023/09/09 11:04:44;;;;;;;5.57;5.10;;;27.30;92.10;;;;;;5088009;28;20469;-85
2023/09/09 11:07:18;;;;;;;6.70;6.20;;;27.40;91.90;;;;;;5091417;28;20520;-85
2023/09/09 11:10:10;;;;;;;6.57;6.07;;;27.50;92.50;;;;;;5075982;28;20460;-88
2023/09/09 11:12:55;;;;;;;8.60;7.73;;;27.50;92.70;;;;;;5087061;28;20959;-85
2023/09/09 11:15:26;;;;;;;6.57;5.97;;;27.50;91.60;;;;;;5076059;28;20465;-84
2023/09/09 11:23:45;;;;;;;5.43;5.03;;;27.70;91.40;;;;;;5066107;28;20936;-85
2023/09/09 11:26:46;;;;;;;6.63;6.13;;;27.80;91.20;;;;;;5082521;28;20818;-84
2023/09/09 11:29:38;;;;;;;9.80;7.23;;;27.80;91.60;;;;;;5073922;28;20441;-91
2023/09/09 11:32:35;;;;;;;5.00;4.70;;;27.90;91.90;;;;;;5077317;28;20508;-90
2023/09/09 11:35:11;;;;;;;6.80;6.30;;;27.80;90.80;;;;;;5061625;28;20454;-85
2023/09/09 11:37:51;;;;;;;5.63;5.20;;;27.90;91.40;;;;;;5073781;28;20477;-89
2023/09/09 11:40:25;;;;;;;6.87;6.20;;;27.90;89.50;;;;;;5082345;28;20784;-89
2023/09/09 11:43:02;;;;;;;6.83;6.37;;;27.90;91.30;;;;;;5077738;28;21138;-90
2023/09/09 11:45:34;;;;;;;12.40;7.00;;;27.90;91.00;;;;;;5075333;28;20462;-85
2023/09/09 11:48:13;;;;;;;6.77;6.20;;;27.90;91.60;;;;;;5063323;28;20493;-85
2023/09/09 11:51:07;;;;;;;6.67;6.10;;;27.80;92.00;;;;;;5083129;28;20456;-88
2023/09/09 11:53:34;;;;;;;6.87;6.37;;;27.70;91.30;;;;;;5074068;28;20835;-89
2023/09/09 11:56:03;;;;;;;6.10;5.60;;;27.70;91.40;;;;;;5083351;28;20858;-90
2023/09/09 11:58:48;;;;;;;7.97;7.17;;;27.70;91.00;;;;;;5085612;28;20480;-85
2023/09/09 12:01:22;;;;;;;7.57;6.97;;;27.70;90.20;;;;;;5085315;28;20475;-85
2023/09/09 12:04:13;;;;;;;6.87;6.27;;;27.80;90.60;;;;;;5096152;28;20469;-89
2023/09/09 12:06:50;;;;;;;7.67;7.07;;;27.80;90.60;;;;;;5087068;28;20488;-85
2023/09/09 12:09:23;;;;;;;9.10;6.70;;;27.80;91.30;;;;;;5096812;28;20480;-88
2023/09/09 12:12:31;;;;;;;;;;;;;;;;;;;;;
2023/09/09 12:15:06;;;;;;;6.73;6.23;;;27.80;90.50;;;;;;5074967;28;20882;-87
2023/09/09 12:17:39;;;;;;;7.10;6.47;;;27.80;90.70;;;;;;5093177;28;20480;-84
2023/09/09 12:20:43;;;;;;;7.50;6.90;;;27.80;91.00;;;;;;5097722;28;21023;-84
2023/09/09 12:23:30;;;;;;;6.90;6.40;;;27.80;90.50;;;;;;5089638;28;20460;-89
2023/09/09 12:26:23;;;;;;;6.10;5.50;;;27.80;91.00;;;;;;5097963;28;20855;-83
2023/09/09 12:29:17;;;;;;;5.80;5.30;;;27.80;88.20;;;;;;5095662;28;20560;-89
2023/09/09 12:32:04;;;;;;;6.37;5.17;;;27.90;87.90;;;;;;5099130;28;20473;-88
2023/09/09 12:34:48;;;;;;;6.73;5.43;;;27.90;86.80;;;;;;5085225;28;20560;-84
2023/09/09 12:37:20;;;;;;;5.33;4.93;;;28.00;86.00;;;;;;5095586;28;20534;-89
2023/09/09 12:40:09;;;;;;;6.97;6.40;;;28.10;86.30;;;;;;5086635;28;20465;-89
2023/09/09 12:42:44;;;;;;;6.77;6.27;;;28.20;89.30;;;;;;5098867;28;20775;-90
2023/09/09 12:46:01;;;;;;;6.13;5.47;;;28.10;90.10;;;;;;5091679;28;20530;-90
2023/09/09 12:48:37;;;;;;;7.23;6.63;;;28.10;88.70;;;;;;5035580;28;20464;-89
2023/09/09 12:54:30;;;;;;;8.50;6.53;;;28.00;87.10;;;;;;5006434;28;20525;-84
2023/09/09 12:59:46;;;;;;;7.60;6.80;;;27.90;90.10;;;;;;5085290;28;20473;-88
2023/09/09 13:05:44;;;;;;;6.77;6.30;;;27.80;85.70;;;;;;5314102;22;20519;-85
2023/09/09 13:11:36;;;;;;;4.80;4.40;;;27.80;86.70;;;;;;5097807;27;20452;-85
2023/09/09 13:14:09;;;;;;;6.43;5.93;;;27.80;82.80;;;;;;5105167;28;20844;-89
2023/09/09 13:16:36;;;;;;;5.80;5.40;;;27.80;84.40;;;;;;5095800;28;20920;-88
2023/09/09 13:19:16;;;;;;;5.53;5.10;;;27.80;87.40;;;;;;5115945;27;20476;-84
2023/09/09 13:21:49;;;;;;;8.70;6.77;;;27.80;82.60;;;;;;5098695;28;20467;-84
2023/09/09 13:24:19;;;;;;;5.77;5.37;;;27.90;84.80;;;;;;5101326;28;20467;-85
2023/09/09 13:26:54;;;;;;;6.03;5.53;;;27.90;86.60;;;;;;5104931;28;20475;-90
2023/09/09 13:29:22;;;;;;;5.60;5.20;;;27.80;85.80;;;;;;5101695;28;20961;-90
2023/09/09 13:31:56;;;;;;;9.80;4.80;;;27.80;84.30;;;;;;5114950;28;20481;-85
2023/09/09 13:34:38;;;;;;;5.60;5.10;;;27.80;84.10;;;;;;5103600;28;20460;-85
2023/09/09 13:37:11;;;;;;;6.53;6.03;;;27.80;85.60;;;;;;5103037;28;20504;-89
2023/09/09 13:39:40;;;;;;;6.53;5.73;;;27.80;81.40;;;;;;5114652;28;20824;-85
2023/09/09 13:42:13;;;;;;;5.40;5.00;;;27.90;80.70;;;;;;5115412;28;20571;-84
2023/09/09 13:44:40;;;;;;;9.13;7.00;;;27.90;80.60;;;;;;5087666;28;20484;-85
2023/09/09 13:47:09;;;;;;;6.47;5.97;;;28.00;81.90;;;;;;5116677;28;20458;-85
2023/09/09 13:49:39;;;;;;;6.77;6.17;;;28.00;84.90;;;;;;5114604;28;20476;-89